ALA weather

Almaty Airport
Almaty, Almaty Region, Kazakhstan

Public forecast

Using degrees Celsius for public forecast. Weather courtesy of forecast.io.

Current aviation weather report (METAR) for Almaty Airport

Retrieved 2019/10/19 21:30 UTC (7 minutes ago):

UAAA 192130Z 17002MPS 9999 NSC 04/02 Q1018 R23L/CLRD65 NOSIG

Aviation forecast (TAF) for Almaty Airport

Retrieved 2019/10/19 18:21 UTC (3 hours ago):

TAF TAF COR UAAA 191700Z 1918/2018 14003MPS 3100 BR FU NSC TX19/2008Z TN04/2001Z TEMPO 1918/1921 21003MPS 1800 BECMG 2003/2004 34004MPS 9999 NSW SCT050 SCT100 TEMPO 2013/2018 3100 FU